sensor_id;sensor_type;location;lat;lon;timestamp;P1;durP1;ratioP1;P2;durP2;ratioP2
63259;SDS011;49390;51.380;0.098;2023-05-08T00:02:10;14.23;;;7.50;;
63259;SDS011;49390;51.380;0.098;2023-05-08T00:04:38;16.05;;;7.25;;
63259;SDS011;49390;51.380;0.098;2023-05-08T00:07:07;13.77;;;7.00;;
63259;SDS011;49390;51.380;0.098;2023-05-08T00:09:35;14.45;;;6.90;;
63259;SDS011;49390;51.380;0.098;2023-05-08T00:12:03;12.50;;;7.28;;
63259;SDS011;49390;51.380;0.098;2023-05-08T00:14:31;13.82;;;7.20;;
63259;SDS011;49390;51.380;0.098;2023-05-08T00:16:59;15.68;;;7.10;;
63259;SDS011;49390;51.380;0.098;2023-05-08T00:19:28;16.20;;;7.13;;
63259;SDS011;49390;51.380;0.098;2023-05-08T00:21:59;17.23;;;6.95;;
63259;SDS011;49390;51.380;0.098;2023-05-08T00:24:27;12.52;;;6.82;;
63259;SDS011;49390;51.380;0.098;2023-05-08T00:26:55;15.80;;;7.30;;
63259;SDS011;49390;51.380;0.098;2023-05-08T00:29:25;13.13;;;6.47;;
63259;SDS011;49390;51.380;0.098;2023-05-08T00:31:53;13.68;;;6.25;;
63259;SDS011;49390;51.380;0.098;2023-05-08T00:34:21;14.35;;;6.47;;
63259;SDS011;49390;51.380;0.098;2023-05-08T00:36:49;13.35;;;6.82;;
63259;SDS011;49390;51.380;0.098;2023-05-08T00:39:17;12.52;;;6.63;;
63259;SDS011;49390;51.380;0.098;2023-05-08T00:41:45;13.45;;;6.25;;
63259;SDS011;49390;51.380;0.098;2023-05-08T00:44:13;12.60;;;6.25;;
63259;SDS011;49390;51.380;0.098;2023-05-08T00:46:40;13.57;;;6.18;;
63259;SDS011;49390;51.380;0.098;2023-05-08T00:49:09;12.77;;;6.00;;
63259;SDS011;49390;51.380;0.098;2023-05-08T00:51:40;12.00;;;6.27;;
63259;SDS011;49390;51.380;0.098;2023-05-08T00:54:10;15.77;;;6.80;;
63259;SDS011;49390;51.380;0.098;2023-05-08T00:56:38;11.48;;;6.32;;
63259;SDS011;49390;51.380;0.098;2023-05-08T00:59:08;11.40;;;6.45;;
63259;SDS011;49390;51.380;0.098;2023-05-08T01:01:37;14.80;;;6.22;;
63259;SDS011;49390;51.380;0.098;2023-05-08T01:04:06;13.50;;;6.38;;
63259;SDS011;49390;51.380;0.098;2023-05-08T01:06:34;12.60;;;6.70;;
63259;SDS011;49390;51.380;0.098;2023-05-08T01:09:03;12.43;;;5.63;;
63259;SDS011;49390;51.380;0.098;2023-05-08T01:14:37;13.90;;;6.05;;
63259;SDS011;49390;51.380;0.098;2023-05-08T01:17:34;12.75;;;5.97;;
63259;SDS011;49390;51.380;0.098;2023-05-08T01:20:15;13.52;;;6.60;;
63259;SDS011;49390;51.380;0.098;2023-05-08T01:33:52;13.45;;;6.97;;
63259;SDS011;49390;51.380;0.098;2023-05-08T01:36:33;14.07;;;6.07;;
63259;SDS011;49390;51.380;0.098;2023-05-08T01:41:59;16.00;;;6.18;;
63259;SDS011;49390;51.380;0.098;2023-05-08T01:44:34;15.35;;;5.65;;
63259;SDS011;49390;51.380;0.098;2023-05-08T01:47:08;12.82;;;6.07;;
63259;SDS011;49390;51.380;0.098;2023-05-08T01:49:45;11.23;;;5.95;;
63259;SDS011;49390;51.380;0.098;2023-05-08T01:54:35;14.18;;;6.20;;
63259;SDS011;49390;51.380;0.098;2023-05-08T01:57:12;12.43;;;6.00;;
63259;SDS011;49390;51.380;0.098;2023-05-08T01:59:41;11.77;;;6.18;;
63259;SDS011;49390;51.380;0.098;2023-05-08T02:02:12;13.68;;;6.43;;
63259;SDS011;49390;51.380;0.098;2023-05-08T02:04:44;17.38;;;6.13;;
63259;SDS011;49390;51.380;0.098;2023-05-08T02:07:13;9.90;;;5.55;;
63259;SDS011;49390;51.380;0.098;2023-05-08T02:09:41;12.27;;;6.47;;
63259;SDS011;49390;51.380;0.098;2023-05-08T02:12:11;10.90;;;6.18;;
63259;SDS011;49390;51.380;0.098;2023-05-08T02:14:42;12.88;;;6.38;;
63259;SDS011;49390;51.380;0.098;2023-05-08T02:17:14;12.85;;;5.70;;
63259;SDS011;49390;51.380;0.098;2023-05-08T02:19:43;11.57;;;5.32;;
63259;SDS011;49390;51.380;0.098;2023-05-08T02:22:13;11.82;;;6.20;;
63259;SDS011;49390;51.380;0.098;2023-05-08T02:24:44;10.95;;;5.65;;
63259;SDS011;49390;51.380;0.098;2023-05-08T02:27:12;13.73;;;6.18;;
63259;SDS011;49390;51.380;0.098;2023-05-08T02:29:42;10.20;;;5.38;;
63259;SDS011;49390;51.380;0.098;2023-05-08T02:32:10;9.25;;;4.90;;
63259;SDS011;49390;51.380;0.098;2023-05-08T02:34:39;12.25;;;5.63;;
63259;SDS011;49390;51.380;0.098;2023-05-08T02:37:29;11.45;;;5.40;;
63259;SDS011;49390;51.380;0.098;2023-05-08T02:39:58;13.88;;;5.97;;
63259;SDS011;49390;51.380;0.098;2023-05-08T02:42:29;9.68;;;4.93;;
63259;SDS011;49390;51.380;0.098;2023-05-08T02:44:57;11.57;;;5.40;;
63259;SDS011;49390;51.380;0.098;2023-05-08T02:47:26;10.23;;;5.25;;
63259;SDS011;49390;51.380;0.098;2023-05-08T02:53:02;10.52;;;5.68;;
63259;SDS011;49390;51.380;0.098;2023-05-08T02:55:38;10.73;;;5.57;;
63259;SDS011;49390;51.380;0.098;2023-05-08T03:03:48;10.90;;;5.53;;
63259;SDS011;49390;51.380;0.098;2023-05-08T03:06:25;9.40;;;5.40;;
63259;SDS011;49390;51.380;0.098;2023-05-08T03:08:55;15.60;;;6.18;;
63259;SDS011;49390;51.380;0.098;2023-05-08T03:11:32;13.52;;;5.90;;
63259;SDS011;49390;51.380;0.098;2023-05-08T03:14:09;12.52;;;5.65;;
63259;SDS011;49390;51.380;0.098;2023-05-08T03:16:39;11.93;;;5.68;;
63259;SDS011;49390;51.380;0.098;2023-05-08T03:19:21;11.70;;;6.20;;
63259;SDS011;49390;51.380;0.098;2023-05-08T03:21:54;14.98;;;6.15;;
63259;SDS011;49390;51.380;0.098;2023-05-08T03:24:24;12.38;;;6.13;;
63259;SDS011;49390;51.380;0.098;2023-05-08T03:26:55;13.70;;;6.15;;
63259;SDS011;49390;51.380;0.098;2023-05-08T03:29:23;14.32;;;6.68;;
63259;SDS011;49390;51.380;0.098;2023-05-08T03:31:53;14.18;;;5.80;;
63259;SDS011;49390;51.380;0.098;2023-05-08T03:34:24;12.98;;;6.30;;
63259;SDS011;49390;51.380;0.098;2023-05-08T03:36:53;13.95;;;6.25;;
63259;SDS011;49390;51.380;0.098;2023-05-08T03:39:21;12.75;;;5.60;;
63259;SDS011;49390;51.380;0.098;2023-05-08T03:41:51;14.23;;;6.50;;
63259;SDS011;49390;51.380;0.098;2023-05-08T03:44:22;14.88;;;5.53;;
63259;SDS011;49390;51.380;0.098;2023-05-08T03:46:51;14.27;;;6.25;;
63259;SDS011;49390;51.380;0.098;2023-05-08T03:49:25;13.93;;;6.20;;
63259;SDS011;49390;51.380;0.098;2023-05-08T03:51:55;13.57;;;5.70;;
63259;SDS011;49390;51.380;0.098;2023-05-08T03:54:24;13.95;;;5.85;;
63259;SDS011;49390;51.380;0.098;2023-05-08T03:56:55;19.58;;;6.60;;
63259;SDS011;49390;51.380;0.098;2023-05-08T03:59:37;14.55;;;6.07;;
63259;SDS011;49390;51.380;0.098;2023-05-08T04:02:28;12.93;;;6.13;;
63259;SDS011;49390;51.380;0.098;2023-05-08T04:07:51;15.90;;;5.43;;
63259;SDS011;49390;51.380;0.098;2023-05-08T04:10:26;14.60;;;6.30;;
63259;SDS011;49390;51.380;0.098;2023-05-08T04:13:02;13.13;;;5.97;;
63259;SDS011;49390;51.380;0.098;2023-05-08T04:15:35;14.88;;;6.28;;
63259;SDS011;49390;51.380;0.098;2023-05-08T04:18:11;12.98;;;5.68;;
63259;SDS011;49390;51.380;0.098;2023-05-08T04:20:45;11.52;;;5.45;;
63259;SDS011;49390;51.380;0.098;2023-05-08T04:23:19;11.75;;;6.18;;
63259;SDS011;49390;51.380;0.098;2023-05-08T04:25:50;11.38;;;5.35;;
63259;SDS011;49390;51.380;0.098;2023-05-08T04:28:19;12.20;;;5.82;;
63259;SDS011;49390;51.380;0.098;2023-05-08T04:30:49;13.95;;;5.45;;
63259;SDS011;49390;51.380;0.098;2023-05-08T04:33:18;13.48;;;6.85;;
63259;SDS011;49390;51.380;0.098;2023-05-08T04:35:47;12.38;;;5.38;;
63259;SDS011;49390;51.380;0.098;2023-05-08T04:38:16;11.02;;;5.32;;
63259;SDS011;49390;51.380;0.098;2023-05-08T04:40:45;10.45;;;5.53;;
63259;SDS011;49390;51.380;0.098;2023-05-08T04:43:13;14.77;;;6.50;;
63259;SDS011;49390;51.380;0.098;2023-05-08T04:45:41;11.27;;;5.10;;
63259;SDS011;49390;51.380;0.098;2023-05-08T04:48:09;12.30;;;5.72;;
63259;SDS011;49390;51.380;0.098;2023-05-08T04:50:37;12.90;;;5.32;;
63259;SDS011;49390;51.380;0.098;2023-05-08T04:53:05;10.77;;;5.80;;
63259;SDS011;49390;51.380;0.098;2023-05-08T04:55:34;10.60;;;5.05;;
63259;SDS011;49390;51.380;0.098;2023-05-08T04:58:02;11.30;;;4.38;;
63259;SDS011;49390;51.380;0.098;2023-05-08T05:00:30;14.40;;;5.57;;
63259;SDS011;49390;51.380;0.098;2023-05-08T05:03:00;12.68;;;5.18;;
63259;SDS011;49390;51.380;0.098;2023-05-08T05:05:30;11.23;;;5.05;;
63259;SDS011;49390;51.380;0.098;2023-05-08T05:07:58;9.02;;;4.32;;
63259;SDS011;49390;51.380;0.098;2023-05-08T05:10:27;7.65;;;4.55;;
63259;SDS011;49390;51.380;0.098;2023-05-08T05:12:57;11.05;;;4.53;;
63259;SDS011;49390;51.380;0.098;2023-05-08T05:15:26;12.25;;;5.05;;
63259;SDS011;49390;51.380;0.098;2023-05-08T05:17:54;7.88;;;4.28;;
63259;SDS011;49390;51.380;0.098;2023-05-08T05:20:22;9.77;;;4.18;;
63259;SDS011;49390;51.380;0.098;2023-05-08T05:22:50;10.20;;;4.15;;
63259;SDS011;49390;51.380;0.098;2023-05-08T05:25:18;11.00;;;4.72;;
63259;SDS011;49390;51.380;0.098;2023-05-08T05:27:46;8.40;;;4.18;;
63259;SDS011;49390;51.380;0.098;2023-05-08T05:30:14;11.18;;;4.82;;
63259;SDS011;49390;51.380;0.098;2023-05-08T05:32:45;9.02;;;4.20;;
63259;SDS011;49390;51.380;0.098;2023-05-08T05:35:13;9.93;;;4.20;;
63259;SDS011;49390;51.380;0.098;2023-05-08T05:37:41;8.75;;;3.75;;
63259;SDS011;49390;51.380;0.098;2023-05-08T05:40:10;8.88;;;4.35;;
63259;SDS011;49390;51.380;0.098;2023-05-08T05:42:39;9.30;;;4.57;;
63259;SDS011;49390;51.380;0.098;2023-05-08T05:45:08;8.07;;;4.70;;
63259;SDS011;49390;51.380;0.098;2023-05-08T05:47:37;10.05;;;4.40;;
63259;SDS011;49390;51.380;0.098;2023-05-08T05:50:12;9.55;;;4.30;;
63259;SDS011;49390;51.380;0.098;2023-05-08T05:52:40;9.85;;;4.90;;
63259;SDS011;49390;51.380;0.098;2023-05-08T05:55:08;11.90;;;4.95;;
63259;SDS011;49390;51.380;0.098;2023-05-08T05:57:36;10.60;;;4.88;;
63259;SDS011;49390;51.380;0.098;2023-05-08T06:00:05;9.35;;;4.90;;
63259;SDS011;49390;51.380;0.098;2023-05-08T06:02:40;11.85;;;4.72;;
63259;SDS011;49390;51.380;0.098;2023-05-08T06:05:11;10.20;;;5.03;;
63259;SDS011;49390;51.380;0.098;2023-05-08T06:07:39;10.95;;;5.55;;
63259;SDS011;49390;51.380;0.098;2023-05-08T06:10:07;9.98;;;5.00;;
63259;SDS011;49390;51.380;0.098;2023-05-08T06:12:38;11.30;;;4.97;;
63259;SDS011;49390;51.380;0.098;2023-05-08T06:15:07;8.82;;;4.70;;
63259;SDS011;49390;51.380;0.098;2023-05-08T06:17:38;9.57;;;4.45;;
63259;SDS011;49390;51.380;0.098;2023-05-08T06:20:16;9.32;;;5.18;;
63259;SDS011;49390;51.380;0.098;2023-05-08T06:22:44;10.10;;;4.50;;
63259;SDS011;49390;51.380;0.098;2023-05-08T06:25:12;9.70;;;4.78;;
63259;SDS011;49390;51.380;0.098;2023-05-08T06:27:41;9.27;;;4.82;;
63259;SDS011;49390;51.380;0.098;2023-05-08T06:30:09;8.98;;;5.18;;
63259;SDS011;49390;51.380;0.098;2023-05-08T06:32:38;13.40;;;4.88;;
63259;SDS011;49390;51.380;0.098;2023-05-08T06:35:06;9.75;;;4.70;;
63259;SDS011;49390;51.380;0.098;2023-05-08T06:37:34;8.43;;;4.60;;
63259;SDS011;49390;51.380;0.098;2023-05-08T06:40:02;9.65;;;5.30;;
63259;SDS011;49390;51.380;0.098;2023-05-08T06:42:39;10.13;;;5.10;;
63259;SDS011;49390;51.380;0.098;2023-05-08T06:45:08;9.85;;;5.38;;
63259;SDS011;49390;51.380;0.098;2023-05-08T06:47:36;7.70;;;3.88;;
63259;SDS011;49390;51.380;0.098;2023-05-08T06:50:04;8.75;;;4.18;;
63259;SDS011;49390;51.380;0.098;2023-05-08T06:52:33;8.38;;;4.05;;
63259;SDS011;49390;51.380;0.098;2023-05-08T06:55:04;6.72;;;3.72;;
63259;SDS011;49390;51.380;0.098;2023-05-08T06:57:34;7.53;;;3.90;;
63259;SDS011;49390;51.380;0.098;2023-05-08T07:00:03;9.07;;;4.28;;
63259;SDS011;49390;51.380;0.098;2023-05-08T07:02:32;7.32;;;3.90;;
63259;SDS011;49390;51.380;0.098;2023-05-08T07:05:00;10.68;;;4.35;;
63259;SDS011;49390;51.380;0.098;2023-05-08T07:07:30;7.85;;;3.90;;
63259;SDS011;49390;51.380;0.098;2023-05-08T07:09:58;8.15;;;4.20;;
63259;SDS011;49390;51.380;0.098;2023-05-08T07:12:26;9.73;;;4.55;;
63259;SDS011;49390;51.380;0.098;2023-05-08T07:14:54;9.95;;;5.10;;
63259;SDS011;49390;51.380;0.098;2023-05-08T07:17:24;7.78;;;4.22;;
63259;SDS011;49390;51.380;0.098;2023-05-08T07:19:53;11.20;;;5.20;;
63259;SDS011;49390;51.380;0.098;2023-05-08T07:22:21;7.32;;;4.18;;
63259;SDS011;49390;51.380;0.098;2023-05-08T07:24:49;7.38;;;4.68;;
63259;SDS011;49390;51.380;0.098;2023-05-08T07:27:17;8.55;;;4.32;;
63259;SDS011;49390;51.380;0.098;2023-05-08T07:29:46;8.48;;;4.20;;
63259;SDS011;49390;51.380;0.098;2023-05-08T07:32:14;7.07;;;4.35;;
63259;SDS011;49390;51.380;0.098;2023-05-08T07:34:42;8.02;;;4.15;;
63259;SDS011;49390;51.380;0.098;2023-05-08T07:37:12;6.97;;;4.03;;
63259;SDS011;49390;51.380;0.098;2023-05-08T07:39:40;8.68;;;4.25;;
63259;SDS011;49390;51.380;0.098;2023-05-08T07:42:08;7.65;;;4.30;;
63259;SDS011;49390;51.380;0.098;2023-05-08T07:44:36;7.00;;;3.72;;
63259;SDS011;49390;51.380;0.098;2023-05-08T07:47:20;7.43;;;3.88;;
63259;SDS011;49390;51.380;0.098;2023-05-08T07:49:48;7.72;;;4.15;;
63259;SDS011;49390;51.380;0.098;2023-05-08T07:52:19;7.55;;;4.30;;
63259;SDS011;49390;51.380;0.098;2023-05-08T07:54:47;6.32;;;3.50;;
63259;SDS011;49390;51.380;0.098;2023-05-08T07:57:14;7.65;;;4.22;;
63259;SDS011;49390;51.380;0.098;2023-05-08T07:59:42;7.28;;;4.40;;
63259;SDS011;49390;51.380;0.098;2023-05-08T08:02:10;9.35;;;4.47;;
63259;SDS011;49390;51.380;0.098;2023-05-08T08:04:38;8.55;;;4.03;;
63259;SDS011;49390;51.380;0.098;2023-05-08T08:07:06;7.70;;;4.22;;
63259;SDS011;49390;51.380;0.098;2023-05-08T08:09:34;8.52;;;4.35;;
63259;SDS011;49390;51.380;0.098;2023-05-08T08:12:02;9.30;;;4.50;;
63259;SDS011;49390;51.380;0.098;2023-05-08T08:14:31;7.25;;;4.15;;
63259;SDS011;49390;51.380;0.098;2023-05-08T08:16:59;9.73;;;4.72;;
63259;SDS011;49390;51.380;0.098;2023-05-08T08:19:27;6.70;;;4.13;;
63259;SDS011;49390;51.380;0.098;2023-05-08T08:21:55;6.75;;;4.45;;
63259;SDS011;49390;51.380;0.098;2023-05-08T08:24:23;6.88;;;4.18;;
63259;SDS011;49390;51.380;0.098;2023-05-08T08:26:51;8.95;;;4.07;;
63259;SDS011;49390;51.380;0.098;2023-05-08T08:29:19;9.68;;;4.55;;
63259;SDS011;49390;51.380;0.098;2023-05-08T08:31:47;8.38;;;4.80;;
63259;SDS011;49390;51.380;0.098;2023-05-08T08:34:15;7.88;;;4.35;;
63259;SDS011;49390;51.380;0.098;2023-05-08T08:36:43;8.20;;;4.38;;
63259;SDS011;49390;51.380;0.098;2023-05-08T08:39:12;9.88;;;4.50;;
63259;SDS011;49390;51.380;0.098;2023-05-08T08:41:41;7.25;;;4.25;;
63259;SDS011;49390;51.380;0.098;2023-05-08T08:44:09;8.07;;;4.18;;
63259;SDS011;49390;51.380;0.098;2023-05-08T08:46:38;8.93;;;4.70;;
63259;SDS011;49390;51.380;0.098;2023-05-08T08:49:21;8.70;;;4.40;;
63259;SDS011;49390;51.380;0.098;2023-05-08T08:51:57;9.05;;;4.88;;
63259;SDS011;49390;51.380;0.098;2023-05-08T08:54:29;9.75;;;5.38;;
63259;SDS011;49390;51.380;0.098;2023-05-08T08:59:33;8.15;;;4.75;;
63259;SDS011;49390;51.380;0.098;2023-05-08T09:02:06;8.32;;;4.70;;
63259;SDS011;49390;51.380;0.098;2023-05-08T09:04:38;6.65;;;4.28;;
63259;SDS011;49390;51.380;0.098;2023-05-08T09:07:06;7.72;;;4.40;;
63259;SDS011;49390;51.380;0.098;2023-05-08T09:09:35;6.50;;;4.18;;
63259;SDS011;49390;51.380;0.098;2023-05-08T09:12:07;8.98;;;4.55;;
63259;SDS011;49390;51.380;0.098;2023-05-08T09:14:38;7.60;;;4.13;;
63259;SDS011;49390;51.380;0.098;2023-05-08T09:17:06;6.55;;;3.47;;
63259;SDS011;49390;51.380;0.098;2023-05-08T09:19:34;5.78;;;3.28;;
63259;SDS011;49390;51.380;0.098;2023-05-08T09:22:03;6.10;;;3.50;;
63259;SDS011;49390;51.380;0.098;2023-05-08T09:27:21;6.05;;;3.40;;
63259;SDS011;49390;51.380;0.098;2023-05-08T09:32:30;7.28;;;3.35;;
63259;SDS011;49390;51.380;0.098;2023-05-08T09:34:59;6.32;;;2.85;;
63259;SDS011;49390;51.380;0.098;2023-05-08T09:37:28;6.50;;;3.20;;
63259;SDS011;49390;51.380;0.098;2023-05-08T09:43:10;7.50;;;3.10;;
63259;SDS011;49390;51.380;0.098;2023-05-08T09:45:40;5.53;;;2.70;;
63259;SDS011;49390;51.380;0.098;2023-05-08T09:48:09;5.97;;;2.80;;
63259;SDS011;49390;51.380;0.098;2023-05-08T09:50:37;4.90;;;2.60;;
63259;SDS011;49390;51.380;0.098;2023-05-08T09:53:08;5.70;;;2.80;;
63259;SDS011;49390;51.380;0.098;2023-05-08T09:55:46;6.50;;;2.63;;
63259;SDS011;49390;51.380;0.098;2023-05-08T09:58:14;8.52;;;2.85;;
63259;SDS011;49390;51.380;0.098;2023-05-08T10:00:42;6.38;;;2.70;;
63259;SDS011;49390;51.380;0.098;2023-05-08T10:05:35;3.95;;;2.33;;
63259;SDS011;49390;51.380;0.098;2023-05-08T10:08:25;5.63;;;2.50;;
63259;SDS011;49390;51.380;0.098;2023-05-08T10:10:53;6.65;;;2.42;;
63259;SDS011;49390;51.380;0.098;2023-05-08T10:13:21;7.75;;;2.75;;
63259;SDS011;49390;51.380;0.098;2023-05-08T10:15:49;6.32;;;3.03;;
63259;SDS011;49390;51.380;0.098;2023-05-08T10:18:21;5.88;;;3.08;;
63259;SDS011;49390;51.380;0.098;2023-05-08T10:20:53;5.43;;;2.40;;
63259;SDS011;49390;51.380;0.098;2023-05-08T10:23:25;6.80;;;2.80;;
63259;SDS011;49390;51.380;0.098;2023-05-08T10:25:54;6.97;;;2.55;;
63259;SDS011;49390;51.380;0.098;2023-05-08T10:28:49;9.57;;;3.05;;
63259;SDS011;49390;51.380;0.098;2023-05-08T10:31:17;5.03;;;2.78;;
63259;SDS011;49390;51.380;0.098;2023-05-08T10:36:17;4.72;;;2.60;;
63259;SDS011;49390;51.380;0.098;2023-05-08T10:38:46;5.60;;;2.58;;
63259;SDS011;49390;51.380;0.098;2023-05-08T10:41:15;5.75;;;2.78;;
63259;SDS011;49390;51.380;0.098;2023-05-08T10:43:45;4.78;;;2.75;;
63259;SDS011;49390;51.380;0.098;2023-05-08T10:49:29;4.30;;;2.65;;
63259;SDS011;49390;51.380;0.098;2023-05-08T10:52:08;5.35;;;2.40;;
63259;SDS011;49390;51.380;0.098;2023-05-08T10:57:30;5.63;;;2.33;;
63259;SDS011;49390;51.380;0.098;2023-05-08T10:59:58;5.18;;;2.50;;
63259;SDS011;49390;51.380;0.098;2023-05-08T11:02:27;4.82;;;2.20;;
63259;SDS011;49390;51.380;0.098;2023-05-08T11:05:15;7.30;;;3.22;;
63259;SDS011;49390;51.380;0.098;2023-05-08T11:07:56;4.05;;;2.17;;
63259;SDS011;49390;51.380;0.098;2023-05-08T11:10:29;5.95;;;2.50;;
63259;SDS011;49390;51.380;0.098;2023-05-08T11:12:59;6.00;;;2.50;;
63259;SDS011;49390;51.380;0.098;2023-05-08T11:15:34;4.88;;;2.20;;
63259;SDS011;49390;51.380;0.098;2023-05-08T11:18:10;6.03;;;2.50;;
63259;SDS011;49390;51.380;0.098;2023-05-08T11:23:32;6.90;;;2.30;;
63259;SDS011;49390;51.380;0.098;2023-05-08T11:28:36;8.25;;;2.55;;
63259;SDS011;49390;51.380;0.098;2023-05-08T11:31:06;6.13;;;2.42;;
63259;SDS011;49390;51.380;0.098;2023-05-08T11:33:35;5.53;;;2.20;;
63259;SDS011;49390;51.380;0.098;2023-05-08T11:36:11;3.78;;;2.33;;
63259;SDS011;49390;51.380;0.098;2023-05-08T11:38:43;6.15;;;2.40;;
63259;SDS011;49390;51.380;0.098;2023-05-08T11:41:35;4.05;;;2.20;;
63259;SDS011;49390;51.380;0.098;2023-05-08T11:46:41;5.38;;;2.63;;
63259;SDS011;49390;51.380;0.098;2023-05-08T11:49:23;6.47;;;2.65;;
63259;SDS011;49390;51.380;0.098;2023-05-08T11:51:57;4.82;;;2.42;;
63259;SDS011;49390;51.380;0.098;2023-05-08T11:54:28;5.72;;;2.60;;
63259;SDS011;49390;51.380;0.098;2023-05-08T11:56:57;6.40;;;2.63;;
63259;SDS011;49390;51.380;0.098;2023-05-08T11:59:25;5.03;;;2.50;;
63259;SDS011;49390;51.380;0.098;2023-05-08T12:01:54;5.40;;;2.50;;
63259;SDS011;49390;51.380;0.098;2023-05-08T12:04:42;4.88;;;2.53;;
63259;SDS011;49390;51.380;0.098;2023-05-08T12:07:12;7.72;;;2.40;;
63259;SDS011;49390;51.380;0.098;2023-05-08T12:09:40;5.93;;;2.78;;
63259;SDS011;49390;51.380;0.098;2023-05-08T12:12:10;5.90;;;2.63;;
63259;SDS011;49390;51.380;0.098;2023-05-08T12:14:38;4.80;;;2.30;;
63259;SDS011;49390;51.380;0.098;2023-05-08T12:17:06;5.72;;;2.55;;
63259;SDS011;49390;51.380;0.098;2023-05-08T12:19:34;5.40;;;2.35;;
63259;SDS011;49390;51.380;0.098;2023-05-08T12:22:02;7.38;;;3.38;;
63259;SDS011;49390;51.380;0.098;2023-05-08T12:24:30;12.80;;;7.10;;
63259;SDS011;49390;51.380;0.098;2023-05-08T12:26:59;6.18;;;2.90;;
63259;SDS011;49390;51.380;0.098;2023-05-08T12:29:27;8.60;;;4.28;;
63259;SDS011;49390;51.380;0.098;2023-05-08T12:31:55;6.68;;;2.13;;
63259;SDS011;49390;51.380;0.098;2023-05-08T12:34:23;4.85;;;2.20;;
63259;SDS011;49390;51.380;0.098;2023-05-08T12:37:04;5.68;;;1.92;;
63259;SDS011;49390;51.380;0.098;2023-05-08T12:39:35;5.57;;;2.30;;
63259;SDS011;49390;51.380;0.098;2023-05-08T12:42:04;2.22;;;1.73;;
63259;SDS011;49390;51.380;0.098;2023-05-08T12:44:32;4.20;;;2.00;;
63259;SDS011;49390;51.380;0.098;2023-05-08T12:47:00;7.03;;;2.30;;
63259;SDS011;49390;51.380;0.098;2023-05-08T12:49:29;4.20;;;2.10;;
63259;SDS011;49390;51.380;0.098;2023-05-08T12:57:15;2.67;;;1.80;;
63259;SDS011;49390;51.380;0.098;2023-05-08T12:59:45;4.05;;;1.77;;
63259;SDS011;49390;51.380;0.098;2023-05-08T13:02:14;1.98;;;1.50;;
63259;SDS011;49390;51.380;0.098;2023-05-08T13:04:44;2.53;;;1.60;;
63259;SDS011;49390;51.380;0.098;2023-05-08T13:07:13;2.90;;;1.70;;
63259;SDS011;49390;51.380;0.098;2023-05-08T13:09:55;3.67;;;1.70;;
63259;SDS011;49390;51.380;0.098;2023-05-08T13:12:24;3.58;;;1.90;;
63259;SDS011;49390;51.380;0.098;2023-05-08T13:14:55;3.37;;;2.00;;
63259;SDS011;49390;51.380;0.098;2023-05-08T13:17:23;5.07;;;2.08;;
63259;SDS011;49390;51.380;0.098;2023-05-08T13:19:51;3.33;;;1.80;;
63259;SDS011;49390;51.380;0.098;2023-05-08T13:22:19;2.78;;;1.63;;
63259;SDS011;49390;51.380;0.098;2023-05-08T13:24:49;3.20;;;1.67;;
63259;SDS011;49390;51.380;0.098;2023-05-08T13:27:17;2.88;;;1.67;;
63259;SDS011;49390;51.380;0.098;2023-05-08T13:29:45;3.78;;;1.60;;
63259;SDS011;49390;51.380;0.098;2023-05-08T13:32:13;4.03;;;1.50;;
63259;SDS011;49390;51.380;0.098;2023-05-08T13:34:44;5.20;;;1.88;;
63259;SDS011;49390;51.380;0.098;2023-05-08T13:37:18;3.10;;;1.90;;
63259;SDS011;49390;51.380;0.098;2023-05-08T13:39:46;3.63;;;1.83;;
63259;SDS011;49390;51.380;0.098;2023-05-08T13:42:14;3.50;;;1.80;;
63259;SDS011;49390;51.380;0.098;2023-05-08T13:44:42;3.75;;;1.90;;
63259;SDS011;49390;51.380;0.098;2023-05-08T13:47:10;4.97;;;1.75;;
63259;SDS011;49390;51.380;0.098;2023-05-08T13:49:38;3.78;;;1.90;;
63259;SDS011;49390;51.380;0.098;2023-05-08T13:52:06;3.38;;;1.65;;
63259;SDS011;49390;51.380;0.098;2023-05-08T13:54:34;3.08;;;2.00;;
63259;SDS011;49390;51.380;0.098;2023-05-08T13:57:02;2.17;;;1.55;;
63259;SDS011;49390;51.380;0.098;2023-05-08T13:59:30;4.30;;;1.80;;
63259;SDS011;49390;51.380;0.098;2023-05-08T14:01:59;4.10;;;2.17;;
63259;SDS011;49390;51.380;0.098;2023-05-08T14:04:27;3.60;;;1.80;;
63259;SDS011;49390;51.380;0.098;2023-05-08T14:06:55;2.83;;;1.60;;
63259;SDS011;49390;51.380;0.098;2023-05-08T14:09:23;3.85;;;2.00;;
63259;SDS011;49390;51.380;0.098;2023-05-08T14:11:51;3.55;;;1.95;;
63259;SDS011;49390;51.380;0.098;2023-05-08T14:14:18;4.28;;;1.92;;
63259;SDS011;49390;51.380;0.098;2023-05-08T14:16:47;3.55;;;1.90;;
63259;SDS011;49390;51.380;0.098;2023-05-08T14:19:15;3.47;;;1.90;;
63259;SDS011;49390;51.380;0.098;2023-05-08T14:21:43;4.82;;;2.80;;
63259;SDS011;49390;51.380;0.098;2023-05-08T14:24:11;3.70;;;1.70;;
63259;SDS011;49390;51.380;0.098;2023-05-08T14:26:40;4.30;;;1.77;;
63259;SDS011;49390;51.380;0.098;2023-05-08T14:29:08;2.80;;;1.80;;
63259;SDS011;49390;51.380;0.098;2023-05-08T14:31:37;2.95;;;1.90;;
63259;SDS011;49390;51.380;0.098;2023-05-08T14:34:05;2.97;;;2.00;;
63259;SDS011;49390;51.380;0.098;2023-05-08T14:36:33;3.08;;;1.88;;
63259;SDS011;49390;51.380;0.098;2023-05-08T14:39:01;3.65;;;2.05;;
63259;SDS011;49390;51.380;0.098;2023-05-08T14:41:30;3.83;;;1.90;;
63259;SDS011;49390;51.380;0.098;2023-05-08T14:43:58;2.50;;;1.80;;
63259;SDS011;49390;51.380;0.098;2023-05-08T14:46:27;4.03;;;1.80;;
63259;SDS011;49390;51.380;0.098;2023-05-08T14:48:56;3.30;;;1.95;;
63259;SDS011;49390;51.380;0.098;2023-05-08T14:51:29;4.43;;;1.92;;
63259;SDS011;49390;51.380;0.098;2023-05-08T14:53:57;5.22;;;2.13;;
63259;SDS011;49390;51.380;0.098;2023-05-08T14:59:12;4.43;;;1.75;;
63259;SDS011;49390;51.380;0.098;2023-05-08T15:01:41;3.55;;;1.85;;
63259;SDS011;49390;51.380;0.098;2023-05-08T15:04:09;4.60;;;2.20;;
63259;SDS011;49390;51.380;0.098;2023-05-08T15:06:38;4.30;;;2.10;;
63259;SDS011;49390;51.380;0.098;2023-05-08T15:09:07;4.28;;;2.05;;
63259;SDS011;49390;51.380;0.098;2023-05-08T15:11:36;3.45;;;2.20;;
63259;SDS011;49390;51.380;0.098;2023-05-08T15:14:04;4.20;;;2.10;;
63259;SDS011;49390;51.380;0.098;2023-05-08T15:16:33;3.97;;;2.13;;
63259;SDS011;49390;51.380;0.098;2023-05-08T15:19:01;3.70;;;1.95;;
63259;SDS011;49390;51.380;0.098;2023-05-08T15:21:29;6.93;;;2.55;;
63259;SDS011;49390;51.380;0.098;2023-05-08T15:23:57;5.47;;;2.22;;
63259;SDS011;49390;51.380;0.098;2023-05-08T15:26:25;3.90;;;2.08;;
63259;SDS011;49390;51.380;0.098;2023-05-08T15:28:53;5.30;;;2.50;;
63259;SDS011;49390;51.380;0.098;2023-05-08T15:31:21;7.63;;;2.70;;
63259;SDS011;49390;51.380;0.098;2023-05-08T15:33:49;4.30;;;2.10;;
63259;SDS011;49390;51.380;0.098;2023-05-08T15:36:17;6.25;;;2.38;;
63259;SDS011;49390;51.380;0.098;2023-05-08T15:38:47;4.28;;;2.20;;
63259;SDS011;49390;51.380;0.098;2023-05-08T15:41:15;6.47;;;2.55;;
63259;SDS011;49390;51.380;0.098;2023-05-08T15:43:43;4.22;;;1.90;;
63259;SDS011;49390;51.380;0.098;2023-05-08T15:46:12;6.10;;;2.40;;
63259;SDS011;49390;51.380;0.098;2023-05-08T15:48:40;6.18;;;2.40;;
63259;SDS011;49390;51.380;0.098;2023-05-08T15:51:08;3.17;;;2.10;;
63259;SDS011;49390;51.380;0.098;2023-05-08T15:53:37;4.53;;;2.40;;
63259;SDS011;49390;51.380;0.098;2023-05-08T15:56:05;7.28;;;2.58;;
63259;SDS011;49390;51.380;0.098;2023-05-08T15:58:35;5.95;;;2.83;;
63259;SDS011;49390;51.380;0.098;2023-05-08T16:03:35;6.40;;;2.80;;
63259;SDS011;49390;51.380;0.098;2023-05-08T16:06:03;5.13;;;2.40;;
63259;SDS011;49390;51.380;0.098;2023-05-08T16:08:31;5.57;;;2.47;;
63259;SDS011;49390;51.380;0.098;2023-05-08T16:10:59;6.32;;;2.63;;
63259;SDS011;49390;51.380;0.098;2023-05-08T16:13:27;5.07;;;2.70;;